vous aimez ? un don permettra le maintien du site
notre code QR

InfometeoRéférentiel météo en Belgique

Notre ancien site Autre version du site

Autre présentation du siteun concentré d'infos sur une page

IN MemoriamPascale Declercq + 23/08/2020 Leuven



 

Valid CSS!


Rapports METAR à proximité

   
LFQQ - Lille/Lesquin, France
Distance: SE 22 km
Mise à jour: 04-12-2021 19:30
Clair  
Clair  
   Vent: SO 13 km/h
Vent: SO 13 km/h
Température: 4°C
éolien: 1°C
Point de rosée: 2°C
Humidité: 87%
Baromètre: 999 hPa
visibilité: More than 10 km
Détails des nuages: Clair m
LFQQ 041830Z AUTO 22007KT CAVOK 04/02 Q0999 NOSIG
EBFN - Koksijde (bel-Af, Belgium
Distance: NNO 42 km
Mise à jour: 04-12-2021 19:25
Nuageux  
Nuageux  
   Vent: SO 17 km/h
Vent: SO 17 km/h
Température: 5°C
éolien: 2°C
Point de rosée: 2°C
Humidité: 81%
Baromètre: 998 hPa
Nuages: Mostly Cloudy
visibilité: More than 10 km
Détails des nuages: Nuageux 975.4 m
EBFN 041825Z AUTO 23009KT 9999 BKN032/// 05/02 Q0998 BLU
EBOS - Oostende Airport, Belgium
Distance: N 53 km
Mise à jour: 04-12-2021 19:50
Partiellement nuageux  
Partiellement nuageux  
   Vent: Ouest 33 km/h
Vent: Ouest 33 km/h
Température: 6°C
éolien: 1°C
Point de rosée: 1°C
Humidité: 71%
Baromètre: 998 hPa
Nuages: Partly Cloudy
visibilité: More than 10 km
Détails des nuages: Partiellement nuageux 975.4 m,
Partiellement nuageux 1219.2 m
EBOS 041850Z 26018KT 9999 SCT032 SCT040 06/01 Q0998 NOSIG

Script développé par  Saratoga-weather.org Adapté pour le modèle par  Weerstation Leuven

Vous trouverez notre info météo Également à:

UK Metoffice

European Weather Network

Weather Underground

AWEKAS

Citizen Weather Observer Program (CWOP)

HAMweather, WeatherForYou, PWS Weather

Équipement utilisé:

Station de Météo
Vantage Pro2

Programme Météo
cumulus

Ordinateur Météo
Zotac ID41

Fournisseur d'accès Internet
Hébergé par

Vantage Pro2

cumulus

Zotac ID41

Hébergé par